createdAt,value
2018-11-12T00:05:00.590Z,12.13
2018-11-12T00:10:12.224Z,12.20
2018-11-12T00:15:17.776Z,12.80
2018-11-12T00:20:22.415Z,11.30
2018-11-12T00:25:27.108Z,10.23
2018-11-12T00:30:31.812Z,11.93
2018-11-12T00:35:36.551Z,11.47
2018-11-12T00:40:42.436Z,10.47
2018-11-12T00:45:46.930Z,10.37
2018-11-12T00:50:51.725Z,10.70
2018-11-12T00:55:56.147Z,12.20
2018-11-12T01:01:01.678Z,10.17
2018-11-12T01:06:06.265Z,9.43
2018-11-12T01:11:11.275Z,13.40
2018-11-12T01:16:15.921Z,14.67
2018-11-12T01:21:20.423Z,11.10
2018-11-12T01:26:30.703Z,12.30
2018-11-12T01:31:36.312Z,14.00
2018-11-12T01:36:59.357Z,12.20
2018-11-12T01:42:05.661Z,14.30
2018-11-12T01:47:10.803Z,15.73
2018-11-12T01:52:15.383Z,13.93
2018-11-12T01:57:19.797Z,14.43
2018-11-12T02:02:25.395Z,13.40
2018-11-12T02:07:29.693Z,11.13
2018-11-12T02:12:34.617Z,12.10
2018-11-12T02:17:39.549Z,11.47
2018-11-12T02:22:45.162Z,11.67
2018-11-12T02:27:50.272Z,12.67
2018-11-12T02:32:56.316Z,12.27
2018-11-12T02:38:00.932Z,12.70
2018-11-12T02:43:05.381Z,11.60
2018-11-12T02:48:09.986Z,11.60
2018-11-12T02:53:14.545Z,12.67
2018-11-12T02:58:19.455Z,12.83
2018-11-12T03:03:24.060Z,10.37
2018-11-12T03:08:33.381Z,10.37
2018-11-12T03:13:37.734Z,10.50
2018-11-12T03:18:42.437Z,10.30
2018-11-12T03:23:47.132Z,8.87
2018-11-12T03:28:51.941Z,10.23
2018-11-12T03:33:56.307Z,12.47
2018-11-12T03:39:00.781Z,8.70
2018-11-12T03:44:05.406Z,9.20
2018-11-12T03:49:09.996Z,10.70
2018-11-12T03:54:14.415Z,8.70
2018-11-12T03:59:18.715Z,9.73
2018-11-12T04:04:23.243Z,11.20
2018-11-12T04:09:27.593Z,9.87
2018-11-12T04:14:32.203Z,11.63
2018-11-12T04:19:36.523Z,10.03
2018-11-12T04:24:41.163Z,9.27
2018-11-12T04:29:45.389Z,10.07
2018-11-12T04:34:50.049Z,9.40
2018-11-12T04:39:55.065Z,7.60
2018-11-12T04:44:59.442Z,9.67
2018-11-12T04:50:04.157Z,9.37
2018-11-12T04:55:09.396Z,10.23
2018-11-12T05:00:17.119Z,10.93
2018-11-12T05:05:22.887Z,9.37
2018-11-12T05:10:27.841Z,9.87
2018-11-12T05:15:32.619Z,10.27
2018-11-12T05:20:37.535Z,8.93
2018-11-12T05:25:42.381Z,8.63
2018-11-12T05:30:46.647Z,9.03
2018-11-12T05:35:50.943Z,8.60
2018-11-12T05:40:55.515Z,11.57
2018-11-12T05:46:00.033Z,8.37
2018-11-12T05:51:06.417Z,9.93
2018-11-12T05:56:10.874Z,12.43
2018-11-12T06:01:15.210Z,9.20
2018-11-12T06:06:20.166Z,7.83
2018-11-12T06:11:24.940Z,8.03
2018-11-12T06:16:29.363Z,8.07
2018-11-12T06:21:34.028Z,9.03
2018-11-12T06:26:38.440Z,8.90
2018-11-12T06:31:42.953Z,8.33
2018-11-12T06:36:47.950Z,7.17
2018-11-12T06:41:52.527Z,8.17
2018-11-12T06:46:57.203Z,8.87
2018-11-12T06:52:05.729Z,7.27
2018-11-12T06:57:10.611Z,7.10
2018-11-12T07:02:15.601Z,9.43
2018-11-12T07:07:25.055Z,6.53
2018-11-12T07:12:30.255Z,7.43
2018-11-12T07:17:49.632Z,6.50
2018-11-12T07:23:12.081Z,9.80
2018-11-12T07:28:22.005Z,10.30
2018-11-12T07:33:26.765Z,6.17
2018-11-12T07:38:36.163Z,7.17
2018-11-12T07:43:41.412Z,6.77
2018-11-12T07:48:45.870Z,6.00
2018-11-12T07:53:50.667Z,5.47
2018-11-12T07:58:57.079Z,4.50
2018-11-12T08:04:01.743Z,8.50
2018-11-12T08:09:08.538Z,5.67
2018-11-12T08:14:12.984Z,8.00
2018-11-12T08:19:22.786Z,7.33
2018-11-12T08:24:27.491Z,7.70
2018-11-12T08:29:32.167Z,8.93
2018-11-12T08:34:36.665Z,12.30
2018-11-12T08:39:41.252Z,6.07
2018-11-12T08:44:46.735Z,4.30
2018-11-12T08:49:51.719Z,4.30
2018-11-12T08:54:56.826Z,4.30
2018-11-12T09:00:01.764Z,4.27
2018-11-12T09:05:08.788Z,6.00
2018-11-12T09:10:29.365Z,7.03
2018-11-12T09:15:34.604Z,4.60
2018-11-12T09:20:44.969Z,4.57
2018-11-12T09:25:49.612Z,3.87
2018-11-12T09:30:55.512Z,3.80
2018-11-12T09:35:59.013Z,5.27
2018-11-12T09:41:03.430Z,3.77
2018-11-12T09:46:07.820Z,3.57
2018-11-12T09:51:19.780Z,3.27
2018-11-12T09:56:26.721Z,4.53
2018-11-12T10:01:31.893Z,4.27
2018-11-12T10:06:37.340Z,3.67
2018-11-12T10:11:42.367Z,3.20
2018-11-12T10:16:47.269Z,4.17
2018-11-12T10:21:49.763Z,3.67
2018-11-12T10:26:54.325Z,3.70
2018-11-12T10:31:58.810Z,6.80
2018-11-12T10:37:03.443Z,3.50
2018-11-12T10:42:08.741Z,3.60
2018-11-12T10:47:13.360Z,3.67
2018-11-12T10:52:18.520Z,3.97
2018-11-12T10:57:27.970Z,4.40
2018-11-12T11:02:33.918Z,3.30
2018-11-12T11:07:38.460Z,3.40
2018-11-12T11:17:47.504Z,4.43
2018-11-12T11:22:52.107Z,4.27
2018-11-12T11:27:56.881Z,3.67
2018-11-12T11:33:02.005Z,3.23
2018-11-12T11:38:06.781Z,5.23
2018-11-12T11:43:11.502Z,5.25
2018-11-12T11:48:16.159Z,4.17
2018-11-12T11:53:20.980Z,3.62
2018-11-12T11:58:26.153Z,3.92
2018-11-12T12:03:30.467Z,4.62
2018-11-12T12:08:36.147Z,3.40
2018-11-12T12:13:40.989Z,4.80
2018-11-12T12:18:45.569Z,3.07
2018-11-12T12:23:49.727Z,3.53
2018-11-12T12:28:54.761Z,3.07
2018-11-12T12:33:59.398Z,2.75
2018-11-12T12:39:10.697Z,6.33
2018-11-12T12:44:16.275Z,3.58
2018-11-12T12:49:21.018Z,3.00
2018-11-12T12:54:25.985Z,4.13
2018-11-12T12:59:30.554Z,3.93
2018-11-12T13:04:34.977Z,5.10
2018-11-12T13:09:39.511Z,4.08
2018-11-12T13:14:43.996Z,13.43
2018-11-12T13:19:48.556Z,4.28
2018-11-12T13:24:52.773Z,3.70
2018-11-12T13:29:57.554Z,15.80
2018-11-12T13:35:02.329Z,5.43
2018-11-12T13:40:09.563Z,3.57
2018-11-12T13:45:14.274Z,3.03
2018-11-12T13:50:20.138Z,3.42
2018-11-12T13:55:25.125Z,4.37
2018-11-12T14:00:30.860Z,5.92
2018-11-12T14:05:35.241Z,3.53
2018-11-12T14:10:39.858Z,4.33
2018-11-12T14:15:44.596Z,3.70
2018-11-12T14:20:49.152Z,3.98
2018-11-12T14:25:54.395Z,3.20
2018-11-12T14:30:58.936Z,4.10
2018-11-12T14:36:03.451Z,9.67
2018-11-12T14:41:07.824Z,4.62
2018-11-12T14:46:12.307Z,5.10
2018-11-12T14:51:16.874Z,4.47
2018-11-12T14:56:21.537Z,4.83
2018-11-12T15:01:26.933Z,5.57
2018-11-12T15:06:31.328Z,8.53
2018-11-12T15:11:36.918Z,4.73
2018-11-12T15:16:42.042Z,5.43
2018-11-12T15:21:47.011Z,4.30
2018-11-12T15:26:51.785Z,3.67
2018-11-12T15:31:56.475Z,4.33
2018-11-12T15:37:14.833Z,4.53
2018-11-12T15:42:19.209Z,7.87
2018-11-12T15:47:23.842Z,4.63
2018-11-12T15:52:28.798Z,6.90
2018-11-12T15:57:38.325Z,4.47
2018-11-12T16:02:42.727Z,8.73
2018-11-12T16:07:47.425Z,6.10
2018-11-12T16:12:52.442Z,6.47
2018-11-12T16:18:06.234Z,5.73
2018-11-12T16:23:10.855Z,7.23
2018-11-12T16:28:17.200Z,5.33
2018-11-12T16:33:21.764Z,7.63
2018-11-12T16:38:26.284Z,9.33
2018-11-12T16:43:31.759Z,5.90
2018-11-12T16:48:36.447Z,6.50
2018-11-12T16:53:41.111Z,7.60
2018-11-12T16:58:45.452Z,7.73
2018-11-12T17:03:50.236Z,7.83
2018-11-12T17:08:54.896Z,6.17
2018-11-12T17:13:59.534Z,6.63
2018-11-12T17:19:04.254Z,6.73
2018-11-12T17:24:09.114Z,8.70
2018-11-12T17:29:14.364Z,9.43
2018-11-12T17:34:19.028Z,8.57
2018-11-12T17:39:23.677Z,11.23
2018-11-12T17:44:28.733Z,10.43
2018-11-12T17:49:33.653Z,8.23
2018-11-12T17:54:38.387Z,9.23
2018-11-12T17:59:42.872Z,8.23
2018-11-12T18:04:47.590Z,11.67
2018-11-12T18:09:52.316Z,8.10
2018-11-12T18:14:57.709Z,8.63
2018-11-12T18:20:02.576Z,10.47
2018-11-12T18:25:11.860Z,8.87
2018-11-12T18:30:25.491Z,10.23
2018-11-12T18:35:30.637Z,8.90
2018-11-12T18:40:35.604Z,10.50
2018-11-12T18:45:40.935Z,8.93
2018-11-12T18:50:45.546Z,9.43
2018-11-12T18:55:50.757Z,8.60
2018-11-12T19:00:56.304Z,12.47
2018-11-12T19:06:01.290Z,10.30
2018-11-12T19:11:16.487Z,10.00
2018-11-12T19:16:20.949Z,11.20
2018-11-12T19:21:25.595Z,9.27
2018-11-12T19:26:31.009Z,15.60
2018-11-12T19:31:35.555Z,12.90
2018-11-12T19:36:40.376Z,10.10
2018-11-12T19:41:45.484Z,10.90
2018-11-12T19:46:50.482Z,10.30
2018-11-12T19:51:55.414Z,10.20
2018-11-12T19:57:02.759Z,10.30
2018-11-12T20:02:08.879Z,10.53
2018-11-12T20:07:19.782Z,12.53
2018-11-12T20:17:35.421Z,11.03
2018-11-12T20:22:41.481Z,10.50
2018-11-12T20:27:47.008Z,10.80
2018-11-12T20:32:52.382Z,12.60
2018-11-12T20:37:57.874Z,11.20
2018-11-12T20:43:02.690Z,10.70
2018-11-12T20:48:08.043Z,10.63
2018-11-12T20:53:21.919Z,10.70
2018-11-12T20:58:31.105Z,10.33
2018-11-12T21:03:35.926Z,15.00
2018-11-12T21:08:43.400Z,11.00
2018-11-12T21:13:48.829Z,10.00
2018-11-12T21:18:58.580Z,9.67
2018-11-12T21:24:04.659Z,10.47
2018-11-12T21:29:23.208Z,15.50
2018-11-12T21:34:28.389Z,12.47
2018-11-12T21:39:33.565Z,13.37
2018-11-12T21:44:43.877Z,8.87
2018-11-12T21:49:50.494Z,10.40
2018-11-12T21:54:56.409Z,9.60
2018-11-12T22:05:35.787Z,9.83
2018-11-12T22:10:41.904Z,9.23
2018-11-12T22:15:47.960Z,8.23
2018-11-12T22:20:53.617Z,8.40
2018-11-12T22:25:58.185Z,10.47
2018-11-12T22:31:02.943Z,10.03
2018-11-12T22:36:07.528Z,7.73
2018-11-12T22:41:19.557Z,10.03
2018-11-12T22:46:30.274Z,7.83
2018-11-12T22:51:37.220Z,7.90
2018-11-12T22:56:41.768Z,6.97
2018-11-12T23:01:46.207Z,10.67
2018-11-12T23:06:51.688Z,8.90
2018-11-12T23:11:56.589Z,8.00
2018-11-12T23:17:00.992Z,7.50
2018-11-12T23:22:06.648Z,7.07
2018-11-12T23:27:11.030Z,7.03
2018-11-12T23:32:15.720Z,6.43
2018-11-12T23:37:20.545Z,7.33
2018-11-12T23:42:24.842Z,7.80
2018-11-12T23:47:29.152Z,7.50
2018-11-12T23:52:33.526Z,8.33
2018-11-12T23:57:37.959Z,7.47
